Terminal Aerodrome Forecast
Issued by NWS

Home | Current Version | Previous Version | Graphics & Text | Print | Product List | Glossary On
Versions: 1 2 3 4 5 6 7 8 9 10 11 12 13 14 15 16 17 18 19 20 21 22 23 24 25 26 27 28 29 30 31 32 33 34 35 36
937
FTUS45 KGGW 200525
TAFOLF
TAF
KOLF 200525Z 2006/2106 25006KT 1/4SM FG VV002
     FM201500 26007KT 1/2SM FG SCT009
     FM201800 26009KT P6SM FEW020
     FM210000 12004KT P6SM BKN100 WS020/24030KT=

USA.gov is the U.S. government's official web portal to all federal, state and local government web resources and services.